Terminal Aerodrome Forecast
Issued by NWS

Home | Current Version | Previous Version | Text Only | Print | Product List | Glossary On
Versions: 1 2 3 4 5 6 7 8 9 10 11 12 13 14 15 16 17 18 19 20 21 22 23 24 25 26
000
FTUS45 KREV 181720
TAFRNO
TAF
KRNO 181720Z 1818/1918 19007KT P6SM FEW060 BKN100 WS020/23040KT
     FM182000 19018G30KT P6SM VCSH SCT060 BKN110 WS015/23040KT
     FM190000 20020G32KT P6SM -RASN BKN050 OVC090
     FM191000 23014G22KT 5SM -SHSN OVC025=

USA.gov is the U.S. government's official web portal to all federal, state and local government web resources and services.